createdAt,value
2016-08-09T00:03:08.650Z,1012.1
2016-08-09T00:06:12.958Z,1012.2
2016-08-09T00:09:26.156Z,1012.08
2016-08-09T00:12:39.260Z,1012.18
2016-08-09T00:15:52.465Z,1012.12
2016-08-09T00:19:09.737Z,1012.04
2016-08-09T00:22:14.053Z,1012.04
2016-08-09T00:25:26.975Z,1012.02
2016-08-09T00:28:40.127Z,1012.06
2016-08-09T00:31:53.414Z,1012.22
2016-08-09T00:35:10.780Z,1012.14
2016-08-09T00:38:15.169Z,1012.2
2016-08-09T00:41:28.169Z,1012.12
2016-08-09T00:44:41.249Z,1012.22
2016-08-09T00:47:54.242Z,1012.2
2016-08-09T00:51:11.227Z,1012.34
2016-08-09T00:54:15.258Z,1012.24
2016-08-09T00:57:28.353Z,1012.32
2016-08-09T01:00:41.367Z,1012.3
2016-08-09T01:03:54.677Z,1012.36
2016-08-09T01:07:07.803Z,1012.3
2016-08-09T01:10:20.820Z,1012.28
2016-08-09T01:13:33.829Z,1012.36
2016-08-09T01:16:47.183Z,1012.4
2016-08-09T01:20:03.792Z,1012.36
2016-08-09T01:23:08.091Z,1012.26
2016-08-09T01:26:21.195Z,1012.36
2016-08-09T01:29:34.427Z,1012.36
2016-08-09T01:32:47.679Z,1012.34
2016-08-09T01:36:04.791Z,1012.34
2016-08-09T01:39:09.310Z,1012.34
2016-08-09T01:42:22.774Z,1012.38
2016-08-09T01:45:35.970Z,1012.38
2016-08-09T01:48:49.221Z,1012.4
2016-08-09T01:52:06.706Z,1012.36
2016-08-09T01:55:11.044Z,1012.38
2016-08-09T01:58:24.272Z,1012.4
2016-08-09T02:01:37.389Z,1012.46
2016-08-09T02:04:49.140Z,1012.46
2016-08-09T02:08:06.518Z,1012.36
2016-08-09T02:11:10.863Z,1012.42
2016-08-09T02:14:23.801Z,1012.42
2016-08-09T02:17:36.907Z,1012.42
2016-08-09T02:20:49.911Z,1012.46
2016-08-09T02:24:07.048Z,1012.5
2016-08-09T02:27:11.530Z,1012.56
2016-08-09T02:30:24.603Z,1012.46
2016-08-09T02:33:37.790Z,1012.46
2016-08-09T02:36:50.767Z,1012.4
2016-08-09T02:40:07.801Z,1012.46
2016-08-09T02:43:12.044Z,1012.44
2016-08-09T02:46:24.874Z,1012.44
2016-08-09T02:49:36.844Z,1012.3
2016-08-09T02:52:48.797Z,1012.34
2016-08-09T02:56:05.689Z,1012.34
2016-08-09T02:59:08.701Z,1012.38
2016-08-09T03:02:22.743Z,1012.36
2016-08-09T03:05:34.525Z,1012.38
2016-08-09T03:08:48.569Z,1012.44
2016-08-09T03:12:05.282Z,1012.5
2016-08-09T03:15:09.472Z,1012.42
2016-08-09T03:18:22.461Z,1012.42
2016-08-09T03:21:35.319Z,1012.4
2016-08-09T03:24:48.154Z,1012.4
2016-08-09T03:28:05.071Z,1012.36
2016-08-09T03:31:09.106Z,1012.46
2016-08-09T03:34:21.788Z,1012.46
2016-08-09T03:37:34.759Z,1012.38
2016-08-09T03:40:47.519Z,1012.52
2016-08-09T03:44:04.245Z,1012.46
2016-08-09T03:47:08.291Z,1012.46
2016-08-09T03:50:20.949Z,1012.48
2016-08-09T03:53:33.860Z,1012.46
2016-08-09T03:56:46.671Z,1012.68
2016-08-09T04:00:03.546Z,1012.76
2016-08-09T04:03:07.330Z,1012.72
2016-08-09T04:06:19.989Z,1012.72
2016-08-09T04:09:32.923Z,1012.64
2016-08-09T04:12:45.665Z,1012.62
2016-08-09T04:16:02.433Z,1012.72
2016-08-09T04:19:10.536Z,1012.56
2016-08-09T04:22:14.527Z,1012.62
2016-08-09T04:25:27.377Z,1012.54
2016-08-09T04:28:40.095Z,1012.52
2016-08-09T04:31:52.919Z,1012.62
2016-08-09T04:35:09.550Z,1012.62
2016-08-09T04:38:13.829Z,1012.54
2016-08-09T04:41:26.993Z,1012.56
2016-08-09T04:44:39.854Z,1012.56
2016-08-09T04:47:52.923Z,1012.64
2016-08-09T04:51:10.019Z,1012.6
2016-08-09T04:54:14.404Z,1012.62
2016-08-09T04:57:27.436Z,1012.64
2016-08-09T05:00:40.475Z,1012.7
2016-08-09T05:03:53.433Z,1012.66
2016-08-09T05:07:10.248Z,1012.78
2016-08-09T05:10:14.469Z,1012.82
2016-08-09T05:13:27.275Z,1012.86
2016-08-09T05:16:40.146Z,1012.88
2016-08-09T05:19:53.057Z,1012.86
2016-08-09T05:23:09.965Z,1012.92
2016-08-09T05:26:12.821Z,1012.8
2016-08-09T05:29:26.683Z,1012.92
2016-08-09T05:32:39.487Z,1012.84
2016-08-09T05:35:52.238Z,1012.84
2016-08-09T05:39:08.945Z,1012.8
2016-08-09T05:42:12.748Z,1012.78
2016-08-09T05:45:25.658Z,1012.8
2016-08-09T05:48:38.393Z,1012.8
2016-08-09T05:51:51.290Z,1012.74
2016-08-09T05:55:07.971Z,1012.7
2016-08-09T05:58:12.128Z,1012.78
2016-08-09T06:01:24.842Z,1012.82
2016-08-09T06:04:37.768Z,1012.9
2016-08-09T06:07:50.351Z,1012.86
2016-08-09T06:11:07.382Z,1012.76
2016-08-09T06:14:11.128Z,1012.9
2016-08-09T06:17:24.015Z,1012.84
2016-08-09T06:20:36.970Z,1012.82
2016-08-09T06:23:49.861Z,1012.96
2016-08-09T06:27:06.838Z,1012.94
2016-08-09T06:30:11.005Z,1012.94
2016-08-09T06:36:36.871Z,1012.86
2016-08-09T06:39:49.998Z,1012.92
2016-08-09T06:43:07.068Z,1012.94
2016-08-09T06:46:11.142Z,1012.96
2016-08-09T06:49:24.325Z,1013
2016-08-09T06:52:37.461Z,1012.9
2016-08-09T06:55:50.415Z,1013
2016-08-09T06:59:07.449Z,1012.96
2016-08-09T07:02:11.502Z,1013
2016-08-09T07:05:24.538Z,1013.07
2016-08-09T07:08:37.709Z,1013.04
2016-08-09T07:11:50.457Z,1013.02
2016-08-09T07:15:07.444Z,1012.94
2016-08-09T07:18:11.764Z,1013.06
2016-08-09T07:21:24.910Z,1013.06
2016-08-09T07:24:37.688Z,1013.06
2016-08-09T07:27:50.696Z,1012.96
2016-08-09T07:31:07.796Z,1012.96
2016-08-09T07:34:11.923Z,1013.06
2016-08-09T07:37:24.642Z,1013.02
2016-08-09T07:40:37.100Z,1013.07
2016-08-09T07:43:50.186Z,1013.13
2016-08-09T07:47:07.220Z,1013.13
2016-08-09T07:50:11.414Z,1013.07
2016-08-09T07:53:24.546Z,1013.11
2016-08-09T07:56:37.318Z,1013.17
2016-08-09T07:59:50.424Z,1013.07
2016-08-09T08:03:08.425Z,1013.11
2016-08-09T08:06:11.585Z,1013.04
2016-08-09T08:09:24.550Z,1012.94
2016-08-09T08:12:37.512Z,1012.96
2016-08-09T08:15:50.530Z,1012.86
2016-08-09T08:19:07.452Z,1012.74
2016-08-09T08:22:11.789Z,1012.6
2016-08-09T08:25:24.885Z,1012.6
2016-08-09T08:28:38.026Z,1012.66
2016-08-09T08:31:51.074Z,1012.62
2016-08-09T08:35:08.147Z,1012.64
2016-08-09T08:38:12.457Z,1012.7
2016-08-09T08:41:25.689Z,1012.66
2016-08-09T08:44:38.927Z,1012.8
2016-08-09T08:47:51.713Z,1012.86
2016-08-09T08:51:08.934Z,1012.9
2016-08-09T08:54:13.210Z,1012.94
2016-08-09T08:57:26.213Z,1012.98
2016-08-09T09:00:39.329Z,1012.98
2016-08-09T09:07:09.221Z,1013.09
2016-08-09T09:10:13.320Z,1013.27
2016-08-09T09:13:26.411Z,1013.23
2016-08-09T09:16:39.366Z,1013.11
2016-08-09T09:19:52.098Z,1013.17
2016-08-09T09:23:08.929Z,1013.21
2016-08-09T09:26:13.193Z,1013.25
2016-08-09T09:29:26.616Z,1013.09
2016-08-09T09:32:40.098Z,1013
2016-08-09T09:35:53.211Z,1013.09
2016-08-09T09:39:10.452Z,1013.02
2016-08-09T09:42:15.434Z,1012.9
2016-08-09T09:45:25.583Z,1012.82
2016-08-09T09:48:38.940Z,1012.78
2016-08-09T09:51:52.553Z,1012.64
2016-08-09T09:55:10.078Z,1012.66
2016-08-09T09:58:15.139Z,1012.56
2016-08-09T10:01:29.052Z,1012.68
2016-08-09T10:04:42.679Z,1012.68
2016-08-09T10:07:56.350Z,1012.72
2016-08-09T10:11:09.950Z,1012.66
2016-08-09T10:14:23.565Z,1012.76
2016-08-09T10:17:37.017Z,1012.7
2016-08-09T10:20:47.729Z,1012.64
2016-08-09T10:24:05.116Z,1012.58
2016-08-09T10:27:09.835Z,1012.74
2016-08-09T10:30:23.222Z,1012.7
2016-08-09T10:33:36.678Z,1012.72
2016-08-09T10:36:50.254Z,1012.72
2016-08-09T10:40:07.742Z,1012.52
2016-08-09T10:43:12.477Z,1012.52
2016-08-09T10:46:26.203Z,1012.54
2016-08-09T10:52:52.965Z,1012.32
2016-08-09T10:56:10.588Z,1012.4
2016-08-09T10:59:15.431Z,1012.4
2016-08-09T11:02:29.161Z,1012.4
2016-08-09T11:05:42.624Z,1012.48
2016-08-09T11:08:56.047Z,1012.44
2016-08-09T11:12:09.499Z,1012.36
2016-08-09T11:15:23.105Z,1012.38
2016-08-09T11:18:36.088Z,1012.34
2016-08-09T11:21:49.588Z,1012.36
2016-08-09T11:25:07.042Z,1012.26
2016-08-09T11:28:11.768Z,1012.32
2016-08-09T11:31:25.078Z,1012.36
2016-08-09T11:34:35.392Z,1012.36
2016-08-09T11:37:48.894Z,1012.28
2016-08-09T11:41:06.271Z,1012.36
2016-08-09T11:44:11.013Z,1012.44
2016-08-09T11:47:21.897Z,1012.4
2016-08-09T11:50:35.438Z,1012.38
2016-08-09T11:53:48.966Z,1012.38
2016-08-09T11:57:06.263Z,1012.32
2016-08-09T12:00:11.170Z,1012.4
2016-08-09T12:03:24.657Z,1012.36
2016-08-09T12:06:37.783Z,1012.26
2016-08-09T12:09:51.392Z,1012.3
2016-08-09T12:13:08.902Z,1012.28
2016-08-09T12:16:13.692Z,1012.28
2016-08-09T12:22:37.719Z,1012.28
2016-08-09T12:25:51.156Z,1012.22
2016-08-09T12:29:08.543Z,1012.14
2016-08-09T12:32:13.378Z,1012.24
2016-08-09T12:35:26.797Z,1012.28
2016-08-09T12:38:40.244Z,1012.2
2016-08-09T12:41:53.387Z,1012.2
2016-08-09T12:45:10.459Z,1012.3
2016-08-09T12:48:15.204Z,1012.42
2016-08-09T12:51:28.672Z,1012.4
2016-08-09T12:54:41.987Z,1012.52
2016-08-09T12:57:52.384Z,1012.44
2016-08-09T13:01:10.831Z,1012.56
2016-08-09T13:04:15.549Z,1012.6
2016-08-09T13:07:28.851Z,1012.46
2016-08-09T13:10:42.552Z,1012.42
2016-08-09T13:13:54.630Z,1012.5
2016-08-09T13:17:08.019Z,1012.36
2016-08-09T13:20:20.888Z,1012.38
2016-08-09T13:23:34.316Z,1012.42
2016-08-09T13:26:47.727Z,1012.36
2016-08-09T13:30:04.965Z,1012.36
2016-08-09T13:33:09.516Z,1012.34
2016-08-09T13:36:22.934Z,1012.42
2016-08-09T13:39:36.294Z,1012.38
2016-08-09T13:42:49.464Z,1012.3
2016-08-09T13:46:06.791Z,1012.24
2016-08-09T13:49:11.488Z,1012.26
2016-08-09T13:52:24.891Z,1012.22
2016-08-09T13:55:38.153Z,1012.12
2016-08-09T13:58:51.535Z,1012.16
2016-08-09T14:02:08.012Z,1011.94
2016-08-09T14:05:12.547Z,1011.84
2016-08-09T14:08:25.972Z,1011.92
2016-08-09T14:11:39.414Z,1011.92
2016-08-09T14:14:52.741Z,1011.86
2016-08-09T14:18:10.149Z,1011.9
2016-08-09T14:21:14.738Z,1011.84
2016-08-09T14:24:27.991Z,1011.78
2016-08-09T14:27:41.178Z,1011.74
2016-08-09T14:30:54.389Z,1011.74
2016-08-09T14:34:07.634Z,1011.68
2016-08-09T14:37:19.806Z,1011.63
2016-08-09T14:40:34.126Z,1011.66
2016-08-09T14:43:46.959Z,1011.63
2016-08-09T14:47:03.965Z,1011.55
2016-08-09T14:50:08.335Z,1011.51
2016-08-09T14:53:21.592Z,1011.49
2016-08-09T14:56:34.739Z,1011.39
2016-08-09T14:59:47.765Z,1011.41
2016-08-09T15:03:04.855Z,1011.39
2016-08-09T15:06:09.331Z,1011.37
2016-08-09T15:09:22.419Z,1011.43
2016-08-09T15:12:35.680Z,1011.49
2016-08-09T15:15:48.855Z,1011.49
2016-08-09T15:19:06.040Z,1011.45
2016-08-09T15:22:10.346Z,1011.41
2016-08-09T15:25:23.409Z,1011.33
2016-08-09T15:28:36.767Z,1011.45
2016-08-09T15:31:49.854Z,1011.37
2016-08-09T15:35:06.788Z,1011.43
2016-08-09T15:38:11.066Z,1011.39
2016-08-09T15:41:24.055Z,1011.47
2016-08-09T15:44:37.181Z,1011.49
2016-08-09T15:47:50.345Z,1011.47
2016-08-09T15:51:07.518Z,1011.41
2016-08-09T15:54:11.856Z,1011.47
2016-08-09T15:57:24.870Z,1011.43
2016-08-09T16:00:37.799Z,1011.43
2016-08-09T16:03:50.903Z,1011.51
2016-08-09T16:07:07.682Z,1011.55
2016-08-09T16:10:11.881Z,1011.53
2016-08-09T16:13:25.174Z,1011.55
2016-08-09T16:16:38.253Z,1011.63
2016-08-09T16:19:51.343Z,1011.59
2016-08-09T16:23:08.510Z,1011.53
2016-08-09T16:26:12.890Z,1011.61
2016-08-09T16:29:25.815Z,1011.53
2016-08-09T16:32:38.735Z,1011.59
2016-08-09T16:35:51.772Z,1011.61
2016-08-09T16:39:08.693Z,1011.53
2016-08-09T16:42:12.987Z,1011.57
2016-08-09T16:45:26.050Z,1011.64
2016-08-09T16:48:37.440Z,1011.59
2016-08-09T16:51:50.214Z,1011.66
2016-08-09T16:55:06.958Z,1011.51
2016-08-09T16:58:11.224Z,1011.59
2016-08-09T17:01:23.754Z,1011.53
2016-08-09T17:04:36.732Z,1011.63
2016-08-09T17:07:49.872Z,1011.53
2016-08-09T17:11:06.514Z,1011.55
2016-08-09T17:14:10.791Z,1011.63
2016-08-09T17:17:23.892Z,1011.74
2016-08-09T17:20:37.147Z,1011.7
2016-08-09T17:23:49.497Z,1011.78
2016-08-09T17:27:06.466Z,1011.66
2016-08-09T17:30:10.942Z,1011.8
2016-08-09T17:33:24.111Z,1011.84
2016-08-09T17:36:34.786Z,1011.86
2016-08-09T17:39:47.794Z,1011.86
2016-08-09T17:43:04.467Z,1011.9
2016-08-09T17:46:08.622Z,1011.98
2016-08-09T17:49:20.568Z,1011.98
2016-08-09T17:52:34.578Z,1012
2016-08-09T17:55:47.460Z,1012
2016-08-09T17:59:04.237Z,1011.98
2016-08-09T18:02:08.339Z,1012.02
2016-08-09T18:05:21.409Z,1011.9
2016-08-09T18:08:34.497Z,1012.08
2016-08-09T18:11:47.562Z,1012.08
2016-08-09T18:15:04.355Z,1012.06
2016-08-09T18:18:08.692Z,1012.14
2016-08-09T18:24:34.401Z,1012.18
2016-08-09T18:27:46.800Z,1012.24
2016-08-09T18:31:03.954Z,1012.22
2016-08-09T18:34:08.161Z,1012.4
2016-08-09T18:37:20.844Z,1012.36
2016-08-09T18:40:33.640Z,1012.46
2016-08-09T18:43:46.550Z,1012.48
2016-08-09T18:47:03.554Z,1012.44
2016-08-09T18:50:07.705Z,1012.48
2016-08-09T18:53:20.630Z,1012.46
2016-08-09T18:56:33.613Z,1012.5
2016-08-09T18:59:46.630Z,1012.48
2016-08-09T19:03:03.683Z,1012.54
2016-08-09T19:06:07.717Z,1012.58
2016-08-09T19:09:20.780Z,1012.54
2016-08-09T19:12:33.754Z,1012.6
2016-08-09T19:15:46.770Z,1012.54
2016-08-09T19:19:03.818Z,1012.64
2016-08-09T19:22:07.985Z,1012.54
2016-08-09T19:25:21.010Z,1012.64
2016-08-09T19:28:33.831Z,1012.76
2016-08-09T19:31:46.856Z,1012.78
2016-08-09T19:32:28.475Z,1012.66
2016-08-09T19:35:39.900Z,1012.68
2016-08-09T19:38:52.318Z,1012.64
2016-08-09T19:42:07.603Z,1012.62
2016-08-09T19:45:11.658Z,1012.56
2016-08-09T19:48:24.319Z,1012.66
2016-08-09T19:51:36.904Z,1012.64
2016-08-09T19:54:48.728Z,1012.66
2016-08-09T19:58:06.557Z,1012.68
2016-08-09T20:01:10.585Z,1012.62
2016-08-09T20:04:23.687Z,1012.64
2016-08-09T20:07:36.085Z,1012.6
2016-08-09T20:10:49.003Z,1012.64
2016-08-09T20:14:04.751Z,1012.82
2016-08-09T20:17:08.691Z,1012.82
2016-08-09T20:20:21.174Z,1012.84
2016-08-09T20:23:33.965Z,1012.94
2016-08-09T20:26:46.717Z,1012.96
2016-08-09T20:30:03.644Z,1012.92
2016-08-09T20:33:11.423Z,1012.82
2016-08-09T20:36:15.234Z,1012.9
2016-08-09T20:39:28.034Z,1012.82
2016-08-09T20:42:40.440Z,1012.82
2016-08-09T20:45:51.344Z,1012.9
2016-08-09T20:49:07.997Z,1012.82
2016-08-09T20:52:12.068Z,1012.92
2016-08-09T20:55:24.879Z,1012.88
2016-08-09T20:58:37.622Z,1012.88
2016-08-09T21:01:50.422Z,1012.88
2016-08-09T21:05:07.314Z,1012.9
2016-08-09T21:08:11.288Z,1012.86
2016-08-09T21:11:23.975Z,1012.76
2016-08-09T21:14:36.760Z,1012.82
2016-08-09T21:17:49.385Z,1012.82
2016-08-09T21:21:06.188Z,1012.8
2016-08-09T21:24:10.142Z,1012.72
2016-08-09T21:27:22.885Z,1012.8
2016-08-09T21:30:35.607Z,1012.84
2016-08-09T21:33:48.261Z,1012.92
2016-08-09T21:37:04.965Z,1012.88
2016-08-09T21:40:08.407Z,1012.88
2016-08-09T21:43:20.838Z,1012.88
2016-08-09T21:46:33.232Z,1012.92
2016-08-09T21:49:45.773Z,1012.88
2016-08-09T21:53:01.794Z,1012.82
2016-08-09T21:56:09.497Z,1012.9
2016-08-09T21:59:13.238Z,1012.82
2016-08-09T22:02:25.952Z,1012.78
2016-08-09T22:05:38.846Z,1012.82
2016-08-09T22:08:51.615Z,1012.88
2016-08-09T22:12:08.381Z,1012.88
2016-08-09T22:15:12.416Z,1012.82
2016-08-09T22:18:25.208Z,1012.86
2016-08-09T22:21:38.046Z,1012.8
2016-08-09T22:24:50.121Z,1012.84
2016-08-09T22:28:06.538Z,1012.68
2016-08-09T22:31:10.643Z,1012.74
2016-08-09T22:34:22.895Z,1012.62
2016-08-09T22:37:34.995Z,1012.62
2016-08-09T22:40:47.380Z,1012.68
2016-08-09T22:44:03.601Z,1012.72
2016-08-09T22:47:11.074Z,1012.7
2016-08-09T22:50:14.188Z,1012.82
2016-08-09T22:53:26.475Z,1012.72
2016-08-09T22:56:38.688Z,1012.62
2016-08-09T22:59:50.987Z,1012.66
2016-08-09T23:03:07.289Z,1012.62
2016-08-09T23:06:10.604Z,1012.64
2016-08-09T23:09:22.714Z,1012.68
2016-08-09T23:12:34.922Z,1012.7
2016-08-09T23:15:46.954Z,1012.8
2016-08-09T23:19:04.818Z,1012.94
2016-08-09T23:22:08.168Z,1012.92
2016-08-09T23:25:22.482Z,1012.88
2016-08-09T23:28:36.771Z,1012.82
2016-08-09T23:31:50.904Z,1012.8
2016-08-09T23:35:09.189Z,1012.84
2016-08-09T23:38:14.669Z,1012.86
2016-08-09T23:41:28.966Z,1012.9
2016-08-09T23:44:42.724Z,1012.86
2016-08-09T23:47:57.023Z,1012.96
2016-08-09T23:51:11.010Z,1012.94
2016-08-09T23:54:25.417Z,1012.86
2016-08-09T23:57:39.379Z,1012.94
